sensor_id;sensor_type;location;lat;lon;timestamp;pressure;altitude;pressure_sealevel;temperature;humidity
40788;BME280;26497;52.494;7.546;2024-03-08T00:00:22;101470.66;;;6.09;60.98
40788;BME280;26497;52.494;7.546;2024-03-08T00:02:49;101469.78;;;6.09;61.22
40788;BME280;26497;52.494;7.546;2024-03-08T00:05:17;101461.88;;;6.07;60.86
40788;BME280;26497;52.494;7.546;2024-03-08T00:07:46;101458.41;;;6.08;60.76
40788;BME280;26497;52.494;7.546;2024-03-08T00:10:13;101469.59;;;6.02;61.05
40788;BME280;26497;52.494;7.546;2024-03-08T00:12:40;101470.06;;;5.90;61.21
40788;BME280;26497;52.494;7.546;2024-03-08T00:15:08;101459.16;;;5.76;61.37
40788;BME280;26497;52.494;7.546;2024-03-08T00:17:36;101458.31;;;5.78;61.81
40788;BME280;26497;52.494;7.546;2024-03-08T00:20:04;101448.84;;;5.81;61.77
40788;BME280;26497;52.494;7.546;2024-03-08T00:22:33;101452.69;;;5.93;61.77
40788;BME280;26497;52.494;7.546;2024-03-08T00:25:03;101451.59;;;5.86;61.58
40788;BME280;26497;52.494;7.546;2024-03-08T00:27:30;101452.28;;;5.80;61.88
40788;BME280;26497;52.494;7.546;2024-03-08T00:29:57;101454.72;;;5.74;61.96
40788;BME280;26497;52.494;7.546;2024-03-08T00:32:24;101447.75;;;5.74;62.25
40788;BME280;26497;52.494;7.546;2024-03-08T00:34:51;101451.50;;;5.83;61.30
40788;BME280;26497;52.494;7.546;2024-03-08T00:37:18;101438.78;;;5.95;61.27
40788;BME280;26497;52.494;7.546;2024-03-08T00:39:45;101435.41;;;5.99;61.01
40788;BME280;26497;52.494;7.546;2024-03-08T00:42:13;101437.34;;;6.05;61.21
40788;BME280;26497;52.494;7.546;2024-03-08T00:44:40;101445.47;;;6.13;60.79
40788;BME280;26497;52.494;7.546;2024-03-08T00:47:07;101442.22;;;6.22;60.65
40788;BME280;26497;52.494;7.546;2024-03-08T00:49:34;101443.81;;;6.16;60.61
40788;BME280;26497;52.494;7.546;2024-03-08T00:52:02;101432.56;;;6.19;60.70
40788;BME280;26497;52.494;7.546;2024-03-08T00:54:29;101432.47;;;6.16;60.73
40788;BME280;26497;52.494;7.546;2024-03-08T00:56:56;101424.91;;;6.27;60.21
40788;BME280;26497;52.494;7.546;2024-03-08T00:59:24;101419.72;;;6.28;60.07
40788;BME280;26497;52.494;7.546;2024-03-08T01:01:51;101418.72;;;6.23;60.16
40788;BME280;26497;52.494;7.546;2024-03-08T01:04:18;101419.47;;;6.19;60.06
40788;BME280;26497;52.494;7.546;2024-03-08T01:06:45;101419.50;;;6.20;60.34
40788;BME280;26497;52.494;7.546;2024-03-08T01:09:12;101402.91;;;6.20;60.10
40788;BME280;26497;52.494;7.546;2024-03-08T01:11:40;101406.47;;;6.24;60.00
40788;BME280;26497;52.494;7.546;2024-03-08T01:14:07;101409.06;;;6.22;59.83
40788;BME280;26497;52.494;7.546;2024-03-08T01:16:36;101409.06;;;6.22;59.49
40788;BME280;26497;52.494;7.546;2024-03-08T01:19:03;101403.84;;;6.22;59.50
40788;BME280;26497;52.494;7.546;2024-03-08T01:21:30;101406.38;;;6.19;59.35
40788;BME280;26497;52.494;7.546;2024-03-08T01:23:56;101400.31;;;6.22;59.49
40788;BME280;26497;52.494;7.546;2024-03-08T01:26:23;101390.59;;;6.17;59.67
40788;BME280;26497;52.494;7.546;2024-03-08T01:28:50;101385.22;;;6.13;59.65
40788;BME280;26497;52.494;7.546;2024-03-08T01:31:17;101373.91;;;6.14;59.48
40788;BME280;26497;52.494;7.546;2024-03-08T01:33:45;101380.03;;;6.14;59.59
40788;BME280;26497;52.494;7.546;2024-03-08T01:36:12;101377.50;;;6.17;59.60
40788;BME280;26497;52.494;7.546;2024-03-08T01:38:41;101373.00;;;6.13;59.62
40788;BME280;26497;52.494;7.546;2024-03-08T01:41:08;101366.75;;;6.08;59.84
40788;BME280;26497;52.494;7.546;2024-03-08T01:43:35;101361.41;;;6.05;59.64
40788;BME280;26497;52.494;7.546;2024-03-08T01:46:02;101357.94;;;6.06;59.73
40788;BME280;26497;52.494;7.546;2024-03-08T01:48:29;101361.13;;;5.96;59.87
40788;BME280;26497;52.494;7.546;2024-03-08T01:50:58;101359.38;;;5.95;59.49
40788;BME280;26497;52.494;7.546;2024-03-08T01:53:26;101358.38;;;5.91;59.33
40788;BME280;26497;52.494;7.546;2024-03-08T01:55:54;101364.50;;;5.92;59.49
40788;BME280;26497;52.494;7.546;2024-03-08T01:58:23;101358.91;;;5.79;59.90
40788;BME280;26497;52.494;7.546;2024-03-08T02:00:50;101360.03;;;5.87;59.60
40788;BME280;26497;52.494;7.546;2024-03-08T02:03:17;101353.94;;;5.88;59.54
40788;BME280;26497;52.494;7.546;2024-03-08T02:05:44;101347.81;;;5.88;59.43
40788;BME280;26497;52.494;7.546;2024-03-08T02:08:13;101350.22;;;5.82;59.70
40788;BME280;26497;52.494;7.546;2024-03-08T02:10:40;101350.22;;;5.82;59.72
40788;BME280;26497;52.494;7.546;2024-03-08T02:13:07;101346.56;;;5.75;60.00
40788;BME280;26497;52.494;7.546;2024-03-08T02:15:50;101349.19;;;5.75;60.03
40788;BME280;26497;52.494;7.546;2024-03-08T02:18:17;101338.53;;;5.69;60.13
40788;BME280;26497;52.494;7.546;2024-03-08T02:20:45;101346.47;;;5.72;59.77
40788;BME280;26497;52.494;7.546;2024-03-08T02:23:13;101341.06;;;5.67;60.16
40788;BME280;26497;52.494;7.546;2024-03-08T02:25:40;101343.84;;;5.72;59.86
40788;BME280;26497;52.494;7.546;2024-03-08T02:28:09;101341.03;;;5.66;59.87
40788;BME280;26497;52.494;7.546;2024-03-08T02:30:37;101329.72;;;5.67;59.68
40788;BME280;26497;52.494;7.546;2024-03-08T02:33:04;101335.91;;;5.69;59.55
40788;BME280;26497;52.494;7.546;2024-03-08T02:35:31;101340.28;;;5.70;59.34
40788;BME280;26497;52.494;7.546;2024-03-08T02:37:59;101334.81;;;5.62;59.68
40788;BME280;26497;52.494;7.546;2024-03-08T02:40:26;101331.03;;;5.52;59.90
40788;BME280;26497;52.494;7.546;2024-03-08T02:42:53;101331.72;;;5.46;60.15
40788;BME280;26497;52.494;7.546;2024-03-08T02:45:20;101335.25;;;5.49;60.30
40788;BME280;26497;52.494;7.546;2024-03-08T02:47:47;101328.34;;;5.51;60.14
40788;BME280;26497;52.494;7.546;2024-03-08T02:50:16;101322.84;;;5.41;60.22
40788;BME280;26497;52.494;7.546;2024-03-08T02:52:43;101324.69;;;5.44;59.93
40788;BME280;26497;52.494;7.546;2024-03-08T02:55:13;101316.94;;;5.49;59.76
40788;BME280;26497;52.494;7.546;2024-03-08T02:57:41;101332.66;;;5.49;59.56
40788;BME280;26497;52.494;7.546;2024-03-08T03:00:10;101324.47;;;5.38;59.98
40788;BME280;26497;52.494;7.546;2024-03-08T03:02:37;101315.91;;;5.43;59.77
40788;BME280;26497;52.494;7.546;2024-03-08T03:05:04;101315.91;;;5.43;59.90
40788;BME280;26497;52.494;7.546;2024-03-08T03:07:32;101322.06;;;5.44;59.67
40788;BME280;26497;52.494;7.546;2024-03-08T03:09:59;101321.97;;;5.41;59.71
40788;BME280;26497;52.494;7.546;2024-03-08T03:12:28;101311.22;;;5.31;60.28
40788;BME280;26497;52.494;7.546;2024-03-08T03:14:55;101306.91;;;5.34;59.90
40788;BME280;26497;52.494;7.546;2024-03-08T03:17:23;101306.06;;;5.35;60.42
40788;BME280;26497;52.494;7.546;2024-03-08T03:19:50;101307.84;;;5.36;60.31
40788;BME280;26497;52.494;7.546;2024-03-08T03:22:17;101294.66;;;5.32;60.00
40788;BME280;26497;52.494;7.546;2024-03-08T03:24:44;101306.91;;;5.34;60.46
40788;BME280;26497;52.494;7.546;2024-03-08T03:27:11;101296.38;;;5.32;60.12
40788;BME280;26497;52.494;7.546;2024-03-08T03:29:40;101298.84;;;5.26;59.99
40788;BME280;26497;52.494;7.546;2024-03-08T03:32:07;101292.88;;;5.30;60.17
40788;BME280;26497;52.494;7.546;2024-03-08T03:34:34;101291.97;;;5.29;59.88
40788;BME280;26497;52.494;7.546;2024-03-08T03:37:02;101288.59;;;5.34;59.76
40788;BME280;26497;52.494;7.546;2024-03-08T03:39:29;101289.88;;;5.19;60.20
40788;BME280;26497;52.494;7.546;2024-03-08T03:41:57;101285.75;;;5.26;60.00
40788;BME280;26497;52.494;7.546;2024-03-08T03:44:24;101278.59;;;5.20;59.89
40788;BME280;26497;52.494;7.546;2024-03-08T03:46:52;101283.69;;;5.15;59.88
40788;BME280;26497;52.494;7.546;2024-03-08T03:49:19;101285.31;;;5.12;59.56
40788;BME280;26497;52.494;7.546;2024-03-08T03:51:47;101285.47;;;5.16;59.80
40788;BME280;26497;52.494;7.546;2024-03-08T03:54:13;101275.88;;;5.17;59.65
40788;BME280;26497;52.494;7.546;2024-03-08T03:56:40;101268.84;;;5.14;60.00
40788;BME280;26497;52.494;7.546;2024-03-08T03:59:07;101262.88;;;5.19;59.81
40788;BME280;26497;52.494;7.546;2024-03-08T04:01:34;101267.47;;;5.27;59.26
40788;BME280;26497;52.494;7.546;2024-03-08T04:04:03;101263.75;;;5.19;59.40
40788;BME280;26497;52.494;7.546;2024-03-08T04:06:31;101272.72;;;5.27;59.70
40788;BME280;26497;52.494;7.546;2024-03-08T04:08:58;101260.38;;;5.23;59.58
40788;BME280;26497;52.494;7.546;2024-03-08T04:11:25;101257.47;;;5.14;60.01
40788;BME280;26497;52.494;7.546;2024-03-08T04:13:52;101250.66;;;5.19;59.88
40788;BME280;26497;52.494;7.546;2024-03-08T04:16:20;101251.69;;;5.24;59.59
40788;BME280;26497;52.494;7.546;2024-03-08T04:18:47;101241.44;;;5.30;59.27
40788;BME280;26497;52.494;7.546;2024-03-08T04:21:15;101247.50;;;5.29;59.27
40788;BME280;26497;52.494;7.546;2024-03-08T04:23:42;101241.41;;;5.29;59.16
40788;BME280;26497;52.494;7.546;2024-03-08T04:26:10;101238.22;;;5.10;59.33
40788;BME280;26497;52.494;7.546;2024-03-08T04:28:38;101240.94;;;5.15;59.84
40788;BME280;26497;52.494;7.546;2024-03-08T04:31:05;101237.59;;;5.19;59.47
40788;BME280;26497;52.494;7.546;2024-03-08T04:33:32;101240.50;;;5.28;59.39
40788;BME280;26497;52.494;7.546;2024-03-08T04:36:01;101227.28;;;5.24;59.55
40788;BME280;26497;52.494;7.546;2024-03-08T04:38:31;101227.13;;;5.19;59.26
40788;BME280;26497;52.494;7.546;2024-03-08T04:40:58;101228.53;;;5.08;59.38
40788;BME280;26497;52.494;7.546;2024-03-08T04:43:27;101220.56;;;5.03;59.02
40788;BME280;26497;52.494;7.546;2024-03-08T04:45:56;101229.47;;;4.82;58.74
40788;BME280;26497;52.494;7.546;2024-03-08T04:48:22;101225.19;;;4.84;58.56
40788;BME280;26497;52.494;7.546;2024-03-08T04:50:52;101233.78;;;4.80;58.96
40788;BME280;26497;52.494;7.546;2024-03-08T04:53:19;101222.31;;;4.77;59.03
40788;BME280;26497;52.494;7.546;2024-03-08T04:55:48;101221.56;;;4.81;58.99
40788;BME280;26497;52.494;7.546;2024-03-08T04:58:15;101221.84;;;4.61;60.02
40788;BME280;26497;52.494;7.546;2024-03-08T05:00:42;101220.91;;;4.59;60.16
40788;BME280;26497;52.494;7.546;2024-03-08T05:03:09;101224.81;;;4.73;59.71
40788;BME280;26497;52.494;7.546;2024-03-08T05:05:36;101224.69;;;4.69;59.63
40788;BME280;26497;52.494;7.546;2024-03-08T05:08:03;101219.13;;;4.58;60.36
40788;BME280;26497;52.494;7.546;2024-03-08T05:10:31;101220.94;;;4.61;60.62
40788;BME280;26497;52.494;7.546;2024-03-08T05:12:59;101222.22;;;4.73;59.98
40788;BME280;26497;52.494;7.546;2024-03-08T05:15:26;101221.91;;;4.64;60.37
40788;BME280;26497;52.494;7.546;2024-03-08T05:17:53;101221.28;;;4.71;59.70
40788;BME280;26497;52.494;7.546;2024-03-08T05:20:21;101215.94;;;4.68;59.99
40788;BME280;26497;52.494;7.546;2024-03-08T05:22:48;101216.41;;;4.55;59.97
40788;BME280;26497;52.494;7.546;2024-03-08T05:25:15;101217.25;;;4.54;60.18
40788;BME280;26497;52.494;7.546;2024-03-08T05:27:43;101218.84;;;4.50;60.12
40788;BME280;26497;52.494;7.546;2024-03-08T05:30:11;101218.66;;;4.44;59.84
40788;BME280;26497;52.494;7.546;2024-03-08T05:32:40;101218.66;;;4.44;59.74
40788;BME280;26497;52.494;7.546;2024-03-08T05:35:10;101215.19;;;4.45;59.84
40788;BME280;26497;52.494;7.546;2024-03-08T05:37:37;101215.00;;;4.39;60.13
40788;BME280;26497;52.494;7.546;2024-03-08T05:40:05;101218.75;;;4.47;59.88
40788;BME280;26497;52.494;7.546;2024-03-08T05:42:35;101212.56;;;4.43;59.53
40788;BME280;26497;52.494;7.546;2024-03-08T05:45:03;101209.66;;;4.36;59.76
40788;BME280;26497;52.494;7.546;2024-03-08T05:47:33;101217.97;;;4.24;60.28
40788;BME280;26497;52.494;7.546;2024-03-08T05:50:00;101212.25;;;4.10;60.78
40788;BME280;26497;52.494;7.546;2024-03-08T05:52:27;101215.94;;;4.15;60.52
40788;BME280;26497;52.494;7.546;2024-03-08T05:54:54;101218.72;;;4.20;60.11
40788;BME280;26497;52.494;7.546;2024-03-08T05:57:21;101208.59;;;4.05;60.65
40788;BME280;26497;52.494;7.546;2024-03-08T05:59:49;101207.72;;;4.04;60.58
40788;BME280;26497;52.494;7.546;2024-03-08T06:02:15;101201.59;;;4.04;60.69
40788;BME280;26497;52.494;7.546;2024-03-08T06:04:46;101203.94;;;3.94;61.86
40788;BME280;26497;52.494;7.546;2024-03-08T06:07:13;101211.53;;;4.14;61.19
40788;BME280;26497;52.494;7.546;2024-03-08T06:09:40;101204.03;;;4.23;61.22
40788;BME280;26497;52.494;7.546;2024-03-08T06:12:10;101201.69;;;4.31;60.81
40788;BME280;26497;52.494;7.546;2024-03-08T06:14:37;101198.50;;;4.40;61.19
40788;BME280;26497;52.494;7.546;2024-03-08T06:17:13;101203.47;;;4.58;61.12
40788;BME280;26497;52.494;7.546;2024-03-08T06:19:40;101204.66;;;4.69;61.12
40788;BME280;26497;52.494;7.546;2024-03-08T06:22:08;101199.63;;;4.76;61.88
40788;BME280;26497;52.494;7.546;2024-03-08T06:24:36;101204.69;;;4.97;61.17
40788;BME280;26497;52.494;7.546;2024-03-08T06:27:04;101201.16;;;4.96;60.92
40788;BME280;26497;52.494;7.546;2024-03-08T06:29:31;101192.75;;;5.07;60.73
40788;BME280;26497;52.494;7.546;2024-03-08T06:31:58;101200.19;;;5.22;60.35
40788;BME280;26497;52.494;7.546;2024-03-08T06:34:25;101197.16;;;5.37;59.88
40788;BME280;26497;52.494;7.546;2024-03-08T06:36:52;101195.66;;;5.45;59.84
40788;BME280;26497;52.494;7.546;2024-03-08T06:39:27;101193.06;;;5.46;59.87
40788;BME280;26497;52.494;7.546;2024-03-08T06:41:57;101189.47;;;5.73;59.77
40788;BME280;26497;52.494;7.546;2024-03-08T06:44:25;101198.22;;;6.06;60.16
40788;BME280;26497;52.494;7.546;2024-03-08T06:46:52;101184.28;;;6.41;59.29
40788;BME280;26497;52.494;7.546;2024-03-08T06:49:19;101186.34;;;6.91;58.63
40788;BME280;26497;52.494;7.546;2024-03-08T06:51:46;101189.09;;;7.38;56.91
40788;BME280;26497;52.494;7.546;2024-03-08T06:54:13;101179.34;;;7.76;55.63
40788;BME280;26497;52.494;7.546;2024-03-08T06:56:41;101187.09;;;8.16;54.64
40788;BME280;26497;52.494;7.546;2024-03-08T06:59:09;101181.69;;;8.55;52.49
40788;BME280;26497;52.494;7.546;2024-03-08T07:01:36;101188.72;;;8.58;51.30
40788;BME280;26497;52.494;7.546;2024-03-08T07:04:04;101183.19;;;8.98;51.31
40788;BME280;26497;52.494;7.546;2024-03-08T07:06:31;101178.44;;;9.35;50.74
40788;BME280;26497;52.494;7.546;2024-03-08T07:09:00;101174.22;;;9.51;49.98
40788;BME280;26497;52.494;7.546;2024-03-08T07:11:27;101179.00;;;9.83;49.23
40788;BME280;26497;52.494;7.546;2024-03-08T07:13:56;101172.75;;;9.73;47.99
40788;BME280;26497;52.494;7.546;2024-03-08T07:16:24;101172.19;;;10.04;47.89
40788;BME280;26497;52.494;7.546;2024-03-08T07:18:52;101168.19;;;10.43;47.39
40788;BME280;26497;52.494;7.546;2024-03-08T07:21:19;101171.81;;;10.59;46.10
40788;BME280;26497;52.494;7.546;2024-03-08T07:23:46;101168.44;;;10.84;45.73
40788;BME280;26497;52.494;7.546;2024-03-08T07:26:28;101167.78;;;11.16;44.91
40788;BME280;26497;52.494;7.546;2024-03-08T07:28:57;101162.56;;;11.33;42.98
40788;BME280;26497;52.494;7.546;2024-03-08T07:31:24;101167.75;;;11.11;42.60
40788;BME280;26497;52.494;7.546;2024-03-08T07:34:00;101162.97;;;10.54;43.75
40788;BME280;26497;52.494;7.546;2024-03-08T07:36:28;101163.16;;;9.80;44.87
40788;BME280;26497;52.494;7.546;2024-03-08T07:38:55;101153.81;;;9.32;45.90
40788;BME280;26497;52.494;7.546;2024-03-08T07:41:23;101156.00;;;8.99;47.03
40788;BME280;26497;52.494;7.546;2024-03-08T07:43:50;101156.41;;;8.67;48.11
40788;BME280;26497;52.494;7.546;2024-03-08T07:46:19;101153.31;;;8.37;48.09
40788;BME280;26497;52.494;7.546;2024-03-08T07:48:46;101152.44;;;8.38;48.82
40788;BME280;26497;52.494;7.546;2024-03-08T07:51:15;101149.81;;;8.37;49.28
40788;BME280;26497;52.494;7.546;2024-03-08T07:53:43;101149.81;;;8.37;49.68
40788;BME280;26497;52.494;7.546;2024-03-08T07:56:10;101151.81;;;8.52;49.43
40788;BME280;26497;52.494;7.546;2024-03-08T07:58:39;101144.56;;;8.38;49.65
40788;BME280;26497;52.494;7.546;2024-03-08T08:01:07;101145.50;;;8.42;49.58
40788;BME280;26497;52.494;7.546;2024-03-08T08:03:35;101151.41;;;8.29;48.83
40788;BME280;26497;52.494;7.546;2024-03-08T08:06:04;101146.22;;;8.32;49.61
40788;BME280;26497;52.494;7.546;2024-03-08T08:08:31;101145.47;;;8.39;49.48
40788;BME280;26497;52.494;7.546;2024-03-08T08:10:58;101156.31;;;8.58;49.47
40788;BME280;26497;52.494;7.546;2024-03-08T08:13:26;101144.94;;;8.60;49.70
40788;BME280;26497;52.494;7.546;2024-03-08T08:15:57;101146.66;;;8.58;49.31
40788;BME280;26497;52.494;7.546;2024-03-08T08:18:24;101145.91;;;8.67;49.79
40788;BME280;26497;52.494;7.546;2024-03-08T08:20:53;101147.81;;;8.76;48.74
40788;BME280;26497;52.494;7.546;2024-03-08T08:23:20;101141.00;;;8.92;49.00
40788;BME280;26497;52.494;7.546;2024-03-08T08:25:47;101144.66;;;9.03;48.54
40788;BME280;26497;52.494;7.546;2024-03-08T08:28:15;101134.16;;;9.03;48.50
40788;BME280;26497;52.494;7.546;2024-03-08T08:30:44;101139.38;;;9.00;48.33
40788;BME280;26497;52.494;7.546;2024-03-08T08:33:11;101138.59;;;9.07;47.55
40788;BME280;26497;52.494;7.546;2024-03-08T08:35:38;101134.84;;;8.88;48.18
40788;BME280;26497;52.494;7.546;2024-03-08T08:38:06;101129.75;;;9.02;47.92
40788;BME280;26497;52.494;7.546;2024-03-08T08:40:34;101127.19;;;9.08;47.94
40788;BME280;26497;52.494;7.546;2024-03-08T08:43:01;101122.56;;;9.61;48.66
40788;BME280;26497;52.494;7.546;2024-03-08T08:45:33;101120.84;;;10.59;46.33
40788;BME280;26497;52.494;7.546;2024-03-08T08:48:00;101113.38;;;11.63;43.61
40788;BME280;26497;52.494;7.546;2024-03-08T08:50:26;101118.75;;;12.53;40.80
40788;BME280;26497;52.494;7.546;2024-03-08T08:52:55;101110.53;;;13.40;39.16
40788;BME280;26497;52.494;7.546;2024-03-08T08:55:23;101105.63;;;14.16;36.92
40788;BME280;26497;52.494;7.546;2024-03-08T08:57:53;101100.03;;;14.51;36.20
40788;BME280;26497;52.494;7.546;2024-03-08T09:00:21;101101.44;;;14.89;35.66
40788;BME280;26497;52.494;7.546;2024-03-08T09:02:52;101103.69;;;15.23;35.18
40788;BME280;26497;52.494;7.546;2024-03-08T09:05:20;101093.81;;;15.94;34.38
40788;BME280;26497;52.494;7.546;2024-03-08T09:07:49;101086.72;;;16.48;33.69
40788;BME280;26497;52.494;7.546;2024-03-08T09:10:16;101073.41;;;16.97;32.60
40788;BME280;26497;52.494;7.546;2024-03-08T09:12:45;101084.53;;;17.16;31.78
40788;BME280;26497;52.494;7.546;2024-03-08T09:15:21;101080.63;;;17.32;31.26
40788;BME280;26497;52.494;7.546;2024-03-08T09:17:48;101078.50;;;17.48;31.69
40788;BME280;26497;52.494;7.546;2024-03-08T09:20:19;101068.81;;;17.44;31.59
40788;BME280;26497;52.494;7.546;2024-03-08T09:22:46;101072.22;;;17.51;31.33
40788;BME280;26497;52.494;7.546;2024-03-08T09:25:16;101064.09;;;17.56;31.47
40788;BME280;26497;52.494;7.546;2024-03-08T09:27:43;101058.91;;;17.51;31.23
40788;BME280;26497;52.494;7.546;2024-03-08T09:30:16;101064.53;;;17.37;31.26
40788;BME280;26497;52.494;7.546;2024-03-08T09:32:43;101054.47;;;17.50;31.26
40788;BME280;26497;52.494;7.546;2024-03-08T09:35:10;101051.78;;;17.88;31.50
40788;BME280;26497;52.494;7.546;2024-03-08T09:37:37;101039.47;;;18.20;30.75
40788;BME280;26497;52.494;7.546;2024-03-08T09:40:05;101043.47;;;18.02;30.15
40788;BME280;26497;52.494;7.546;2024-03-08T09:42:35;101039.56;;;17.79;30.90
40788;BME280;26497;52.494;7.546;2024-03-08T09:45:04;101032.41;;;18.17;31.17
40788;BME280;26497;52.494;7.546;2024-03-08T09:47:37;101030.72;;;18.79;29.87
40788;BME280;26497;52.494;7.546;2024-03-08T09:50:06;101020.56;;;19.22;29.85
40788;BME280;26497;52.494;7.546;2024-03-08T09:52:40;101019.09;;;19.40;29.20
40788;BME280;26497;52.494;7.546;2024-03-08T09:55:10;101015.69;;;19.35;28.75
40788;BME280;26497;52.494;7.546;2024-03-08T09:57:37;101012.16;;;19.35;29.18
40788;BME280;26497;52.494;7.546;2024-03-08T10:00:05;101007.00;;;19.28;28.49
40788;BME280;26497;52.494;7.546;2024-03-08T10:02:46;100998.06;;;19.01;28.79
40788;BME280;26497;52.494;7.546;2024-03-08T10:05:14;101003.84;;;18.84;29.02
40788;BME280;26497;52.494;7.546;2024-03-08T10:07:41;100995.50;;;19.25;29.22
40788;BME280;26497;52.494;7.546;2024-03-08T10:10:08;100989.50;;;19.73;29.02
40788;BME280;26497;52.494;7.546;2024-03-08T10:12:37;100994.00;;;19.73;27.96
40788;BME280;26497;52.494;7.546;2024-03-08T10:15:06;100983.84;;;19.83;28.06
40788;BME280;26497;52.494;7.546;2024-03-08T10:17:34;100981.28;;;20.07;28.17
40788;BME280;26497;52.494;7.546;2024-03-08T10:20:02;100981.16;;;19.83;27.65
40788;BME280;26497;52.494;7.546;2024-03-08T10:22:40;100971.28;;;19.85;27.84
40788;BME280;26497;52.494;7.546;2024-03-08T10:25:08;100968.78;;;19.80;28.38
40788;BME280;26497;52.494;7.546;2024-03-08T10:27:36;100965.53;;;19.97;27.35
40788;BME280;26497;52.494;7.546;2024-03-08T10:30:06;100961.16;;;19.95;28.04
40788;BME280;26497;52.494;7.546;2024-03-08T10:32:34;100972.44;;;20.04;28.55
40788;BME280;26497;52.494;7.546;2024-03-08T10:35:01;100962.53;;;20.07;28.11
40788;BME280;26497;52.494;7.546;2024-03-08T10:37:29;100958.53;;;19.66;27.51
40788;BME280;26497;52.494;7.546;2024-03-08T10:40:02;100958.00;;;19.82;28.58
40788;BME280;26497;52.494;7.546;2024-03-08T10:42:36;100954.00;;;20.21;27.99
40788;BME280;26497;52.494;7.546;2024-03-08T10:45:13;100957.81;;;19.61;27.22
40788;BME280;26497;52.494;7.546;2024-03-08T10:47:41;100946.91;;;19.67;28.44
40788;BME280;26497;52.494;7.546;2024-03-08T10:50:18;100946.91;;;19.67;28.10
40788;BME280;26497;52.494;7.546;2024-03-08T10:52:49;100943.81;;;19.53;28.11
40788;BME280;26497;52.494;7.546;2024-03-08T10:55:17;100940.41;;;19.48;28.36
40788;BME280;26497;52.494;7.546;2024-03-08T10:57:46;100938.16;;;19.07;28.29
40788;BME280;26497;52.494;7.546;2024-03-08T11:00:13;100937.75;;;19.48;28.73
40788;BME280;26497;52.494;7.546;2024-03-08T11:02:43;100939.50;;;19.75;28.58
40788;BME280;26497;52.494;7.546;2024-03-08T11:05:10;100931.97;;;20.38;28.12
40788;BME280;26497;52.494;7.546;2024-03-08T11:07:42;100924.31;;;20.27;27.86
40788;BME280;26497;52.494;7.546;2024-03-08T11:10:20;100920.34;;;20.13;27.60
40788;BME280;26497;52.494;7.546;2024-03-08T11:12:47;100918.34;;;20.20;27.45
40788;BME280;26497;52.494;7.546;2024-03-08T11:15:14;100912.78;;;20.50;27.59
40788;BME280;26497;52.494;7.546;2024-03-08T11:17:47;100905.50;;;20.77;28.28
40788;BME280;26497;52.494;7.546;2024-03-08T11:20:16;100901.44;;;20.89;27.39
40788;BME280;26497;52.494;7.546;2024-03-08T11:22:48;100898.44;;;20.51;27.79
40788;BME280;26497;52.494;7.546;2024-03-08T11:25:35;100903.38;;;19.89;28.30
40788;BME280;26497;52.494;7.546;2024-03-08T11:28:09;100890.91;;;19.88;27.29
40788;BME280;26497;52.494;7.546;2024-03-08T11:30:43;100883.31;;;19.49;27.85
40788;BME280;26497;52.494;7.546;2024-03-08T11:33:11;100877.03;;;19.77;28.88
40788;BME280;26497;52.494;7.546;2024-03-08T11:35:39;100881.69;;;19.44;29.18
40788;BME280;26497;52.494;7.546;2024-03-08T11:38:08;100868.97;;;19.78;28.21
40788;BME280;26497;52.494;7.546;2024-03-08T11:40:36;100864.31;;;20.32;27.70
40788;BME280;26497;52.494;7.546;2024-03-08T11:43:05;100863.75;;;20.48;28.02
40788;BME280;26497;52.494;7.546;2024-03-08T11:45:34;100857.16;;;20.33;28.10
40788;BME280;26497;52.494;7.546;2024-03-08T11:48:03;100856.09;;;20.13;28.31
40788;BME280;26497;52.494;7.546;2024-03-08T11:50:30;100856.72;;;19.96;28.61
40788;BME280;26497;52.494;7.546;2024-03-08T11:53:02;100842.53;;;19.94;28.99
40788;BME280;26497;52.494;7.546;2024-03-08T11:55:29;100837.78;;;20.26;28.21
40788;BME280;26497;52.494;7.546;2024-03-08T11:58:02;100838.59;;;19.79;27.88
40788;BME280;26497;52.494;7.546;2024-03-08T12:00:30;100835.91;;;19.54;28.89
40788;BME280;26497;52.494;7.546;2024-03-08T12:03:01;100830.19;;;19.65;29.12
40788;BME280;26497;52.494;7.546;2024-03-08T12:05:28;100822.84;;;19.44;28.72
40788;BME280;26497;52.494;7.546;2024-03-08T12:07:57;100819.78;;;19.81;29.06
40788;BME280;26497;52.494;7.546;2024-03-08T12:10:24;100815.13;;;19.37;28.49
40788;BME280;26497;52.494;7.546;2024-03-08T12:12:52;100812.09;;;19.21;28.38
40788;BME280;26497;52.494;7.546;2024-03-08T12:15:22;100808.13;;;19.33;28.23
40788;BME280;26497;52.494;7.546;2024-03-08T12:17:50;100804.66;;;19.29;29.00
40788;BME280;26497;52.494;7.546;2024-03-08T12:20:18;100807.78;;;19.67;28.84
40788;BME280;26497;52.494;7.546;2024-03-08T12:22:47;100800.44;;;19.98;28.62
40788;BME280;26497;52.494;7.546;2024-03-08T12:25:14;100785.28;;;19.98;27.57
40788;BME280;26497;52.494;7.546;2024-03-08T12:27:42;100786.31;;;19.45;28.14
40788;BME280;26497;52.494;7.546;2024-03-08T12:30:21;100783.63;;;19.45;28.94
40788;BME280;26497;52.494;7.546;2024-03-08T12:32:53;100768.53;;;19.42;28.21
40788;BME280;26497;52.494;7.546;2024-03-08T12:35:21;100773.63;;;19.25;28.33
40788;BME280;26497;52.494;7.546;2024-03-08T12:37:50;100760.66;;;18.59;28.79
40788;BME280;26497;52.494;7.546;2024-03-08T12:40:17;100770.63;;;18.25;30.41
40788;BME280;26497;52.494;7.546;2024-03-08T12:42:44;100764.94;;;18.91;29.30
40788;BME280;26497;52.494;7.546;2024-03-08T12:45:14;100755.22;;;18.89;29.48
40788;BME280;26497;52.494;7.546;2024-03-08T12:47:42;100753.28;;;19.21;30.00
40788;BME280;26497;52.494;7.546;2024-03-08T12:50:10;100752.81;;;19.33;28.96
40788;BME280;26497;52.494;7.546;2024-03-08T12:52:37;100757.53;;;19.52;28.87
40788;BME280;26497;52.494;7.546;2024-03-08T12:55:04;100751.19;;;19.54;28.97
40788;BME280;26497;52.494;7.546;2024-03-08T12:57:34;100741.50;;;19.75;28.04
40788;BME280;26497;52.494;7.546;2024-03-08T13:00:04;100746.56;;;19.83;27.83
40788;BME280;26497;52.494;7.546;2024-03-08T13:02:39;100736.00;;;19.55;27.99